createdAt,value
2022-12-08T00:00:43.371Z,65.75
2022-12-08T00:02:45.426Z,64.55
2022-12-08T00:05:06.340Z,64.35
2022-12-08T00:07:27.639Z,61.70
2022-12-08T00:09:38.700Z,60.00
2022-12-08T00:11:44.447Z,70.85
2022-12-08T00:13:46.521Z,71.28
2022-12-08T00:15:48.177Z,63.70
2022-12-08T00:17:49.751Z,60.35
2022-12-08T00:19:51.364Z,65.25
2022-12-08T00:21:53.649Z,58.28
2022-12-08T00:23:56.300Z,56.97
2022-12-08T00:26:02.341Z,55.83
2022-12-08T00:28:04.186Z,60.05
2022-12-08T00:30:07.082Z,63.30
2022-12-08T00:32:08.787Z,54.85
2022-12-08T00:34:12.572Z,52.75
2022-12-08T00:36:14.774Z,52.05
2022-12-08T00:38:16.705Z,53.03
2022-12-08T00:40:18.527Z,46.63
2022-12-08T00:42:20.164Z,51.08
2022-12-08T00:44:21.890Z,47.75
2022-12-08T00:46:23.551Z,53.63
2022-12-08T00:48:25.337Z,47.20
2022-12-08T00:50:26.996Z,54.70
2022-12-08T00:52:28.638Z,48.08
2022-12-08T00:54:30.316Z,55.28
2022-12-08T00:56:32.488Z,51.88
2022-12-08T00:58:34.092Z,49.58
2022-12-08T01:00:35.904Z,50.30
2022-12-08T01:02:37.747Z,48.00
2022-12-08T01:04:39.369Z,47.45
2022-12-08T01:06:41.905Z,50.72
2022-12-08T01:08:43.664Z,45.72
2022-12-08T01:10:45.371Z,44.67
2022-12-08T01:12:47.036Z,48.15
2022-12-08T01:14:48.688Z,41.17
2022-12-08T01:16:50.463Z,43.45
2022-12-08T01:18:52.395Z,45.08
2022-12-08T01:20:53.995Z,42.78
2022-12-08T01:22:55.688Z,43.65
2022-12-08T01:24:57.409Z,44.15
2022-12-08T01:26:59.012Z,44.97
2022-12-08T01:29:00.686Z,46.15
2022-12-08T01:31:02.783Z,47.05
2022-12-08T01:33:04.533Z,42.97
2022-12-08T01:35:06.408Z,43.50
2022-12-08T01:37:08.115Z,39.67
2022-12-08T01:39:17.590Z,43.70
2022-12-08T01:41:24.049Z,41.83
2022-12-08T01:43:25.884Z,38.17
2022-12-08T01:45:31.847Z,44.78
2022-12-08T01:47:42.465Z,45.97
2022-12-08T01:49:44.142Z,38.65
2022-12-08T01:51:57.668Z,45.45
2022-12-08T01:53:59.371Z,36.58
2022-12-08T01:56:08.629Z,43.08
2022-12-08T01:58:31.479Z,38.88
2022-12-08T02:00:33.035Z,44.17
2022-12-08T02:02:59.412Z,40.13
2022-12-08T02:05:02.142Z,35.25
2022-12-08T02:07:07.957Z,35.80
2022-12-08T02:09:10.207Z,36.28
2022-12-08T02:11:12.565Z,37.60
2022-12-08T02:13:16.473Z,33.78
2022-12-08T02:17:35.609Z,33.95
2022-12-08T02:19:58.103Z,36.63
2022-12-08T02:22:24.190Z,32.80
2022-12-08T02:24:28.692Z,36.83
2022-12-08T02:26:53.285Z,32.63
2022-12-08T02:28:55.061Z,36.03
2022-12-08T02:31:46.816Z,34.15
2022-12-08T02:34:03.748Z,33.75
2022-12-08T02:36:08.391Z,30.75
2022-12-08T02:38:26.222Z,32.30
2022-12-08T02:40:33.809Z,36.47
2022-12-08T02:43:01.106Z,37.58
2022-12-08T02:45:19.375Z,35.53
2022-12-08T02:47:22.641Z,34.33
2022-12-08T02:49:33.863Z,34.95
2022-12-08T02:51:35.671Z,35.70
2022-12-08T02:53:37.378Z,36.65
2022-12-08T02:56:00.790Z,34.85
2022-12-08T02:58:28.732Z,36.58
2022-12-08T03:00:38.540Z,37.63
2022-12-08T03:02:49.258Z,36.85
2022-12-08T03:04:58.714Z,35.08
2022-12-08T03:07:09.144Z,35.67
2022-12-08T03:09:17.866Z,36.80
2022-12-08T03:12:06.858Z,40.33
2022-12-08T03:14:10.906Z,33.45
2022-12-08T03:16:16.996Z,36.47
2022-12-08T03:18:21.176Z,33.70
2022-12-08T03:20:25.479Z,40.42
2022-12-08T03:22:28.050Z,37.15
2022-12-08T03:24:33.115Z,35.42
2022-12-08T03:26:41.702Z,33.95
2022-12-08T03:28:43.374Z,38.00
2022-12-08T03:30:46.341Z,32.72
2022-12-08T03:32:53.039Z,34.57
2022-12-08T03:34:57.070Z,36.92
2022-12-08T03:37:00.783Z,35.80
2022-12-08T03:39:02.458Z,38.47
2022-12-08T03:41:19.460Z,35.40
2022-12-08T03:43:21.090Z,35.22
2022-12-08T03:45:22.750Z,41.63
2022-12-08T03:47:24.417Z,40.35
2022-12-08T03:49:26.016Z,34.15
2022-12-08T03:51:27.631Z,33.75
2022-12-08T03:53:29.297Z,33.22
2022-12-08T03:55:30.970Z,32.10
2022-12-08T03:57:32.583Z,34.45
2022-12-08T03:59:34.453Z,36.28
2022-12-08T04:01:36.145Z,35.97
2022-12-08T04:03:37.829Z,34.25
2022-12-08T04:05:39.628Z,31.45
2022-12-08T04:07:41.316Z,37.78
2022-12-08T04:09:43.113Z,34.38
2022-12-08T04:11:44.791Z,41.28
2022-12-08T04:13:46.482Z,31.42
2022-12-08T04:15:48.437Z,37.38
2022-12-08T04:17:50.230Z,36.90
2022-12-08T04:19:51.920Z,35.33
2022-12-08T04:21:53.568Z,33.22
2022-12-08T04:24:00.873Z,37.35
2022-12-08T04:26:03.362Z,33.95
2022-12-08T04:28:05.790Z,35.78
2022-12-08T04:30:09.984Z,34.58
2022-12-08T04:32:11.575Z,37.08
2022-12-08T04:34:13.310Z,36.75
2022-12-08T04:36:15.175Z,34.33
2022-12-08T04:38:17.418Z,35.88
2022-12-08T04:40:19.080Z,31.77
2022-12-08T04:42:20.943Z,36.42
2022-12-08T04:44:22.611Z,34.95
2022-12-08T04:46:24.339Z,31.42
2022-12-08T04:48:26.025Z,38.75
2022-12-08T04:50:28.197Z,30.98
2022-12-08T04:52:29.915Z,33.72
2022-12-08T04:54:31.727Z,35.47
2022-12-08T04:56:33.391Z,42.72
2022-12-08T04:58:35.127Z,41.28
2022-12-08T05:00:36.855Z,37.53
2022-12-08T05:02:38.690Z,36.63
2022-12-08T05:04:40.482Z,36.85
2022-12-08T05:06:42.131Z,35.17
2022-12-08T05:08:44.032Z,35.40
2022-12-08T05:10:45.758Z,35.70
2022-12-08T05:12:47.426Z,34.85
2022-12-08T05:14:49.026Z,34.33
2022-12-08T05:16:50.842Z,40.22
2022-12-08T05:18:52.503Z,35.67
2022-12-08T05:20:54.155Z,36.47
2022-12-08T05:22:55.860Z,34.67
2022-12-08T05:24:57.505Z,44.45
2022-12-08T05:26:59.214Z,36.83
2022-12-08T05:29:01.273Z,39.45
2022-12-08T05:31:03.002Z,42.40
2022-12-08T05:33:04.613Z,41.65
2022-12-08T05:35:06.800Z,44.83
2022-12-08T05:37:08.454Z,45.47
2022-12-08T05:39:13.961Z,44.80
2022-12-08T05:41:18.052Z,44.42
2022-12-08T05:43:19.928Z,51.10
2022-12-08T05:45:21.588Z,53.88
2022-12-08T05:47:23.189Z,49.47
2022-12-08T05:49:24.861Z,51.45
2022-12-08T05:51:26.961Z,50.33
2022-12-08T05:53:28.604Z,48.58
2022-12-08T05:55:30.451Z,50.90
2022-12-08T05:57:32.172Z,58.75
2022-12-08T05:59:33.881Z,50.78
2022-12-08T06:01:35.671Z,50.47
2022-12-08T06:03:37.457Z,52.22
2022-12-08T06:05:41.051Z,64.68
2022-12-08T06:07:42.777Z,56.17
2022-12-08T06:09:44.548Z,55.35
2022-12-08T06:11:47.303Z,70.63
2022-12-08T06:13:49.789Z,76.43
2022-12-08T06:15:51.397Z,64.55
2022-12-08T06:17:53.090Z,64.03
2022-12-08T06:19:54.722Z,59.63
2022-12-08T06:21:56.327Z,63.13
2022-12-08T06:23:58.029Z,61.35
2022-12-08T06:26:07.639Z,61.83
2022-12-08T06:28:09.269Z,57.13
2022-12-08T06:30:11.156Z,56.35
2022-12-08T06:32:13.081Z,60.38
2022-12-08T06:34:14.740Z,57.33
2022-12-08T06:36:18.584Z,68.10
2022-12-08T06:40:21.860Z,57.47
2022-12-08T06:42:41.941Z,51.75
2022-12-08T06:44:43.824Z,45.58
2022-12-08T06:46:45.427Z,54.85
2022-12-08T06:48:47.534Z,50.33
2022-12-08T06:50:49.162Z,46.83
2022-12-08T06:53:02.772Z,50.78
2022-12-08T06:55:07.129Z,54.17
2022-12-08T06:57:08.756Z,48.50
2022-12-08T06:59:10.621Z,49.30
2022-12-08T07:01:13.827Z,48.25
2022-12-08T07:03:15.583Z,57.70
2022-12-08T07:05:17.272Z,51.63
2022-12-08T07:07:18.852Z,60.20
2022-12-08T07:09:20.728Z,52.30
2022-12-08T07:11:22.871Z,56.08
2022-12-08T07:13:24.829Z,57.50
2022-12-08T07:15:26.462Z,51.10
2022-12-08T07:17:28.071Z,59.97
2022-12-08T07:19:29.837Z,52.10
2022-12-08T07:21:32.688Z,62.13
2022-12-08T07:23:34.541Z,60.80
2022-12-08T07:25:36.267Z,54.70
2022-12-08T07:27:37.848Z,54.92
2022-12-08T07:29:39.467Z,54.85
2022-12-08T07:31:41.101Z,57.00
2022-12-08T07:33:43.235Z,59.92
2022-12-08T07:35:49.110Z,63.47
2022-12-08T07:37:51.197Z,74.70
2022-12-08T07:39:52.809Z,73.50
2022-12-08T07:41:54.390Z,62.08
2022-12-08T07:43:56.567Z,55.97
2022-12-08T07:45:58.223Z,56.00
2022-12-08T07:47:59.987Z,55.85
2022-12-08T07:50:01.851Z,53.67
2022-12-08T07:52:03.751Z,54.25
2022-12-08T07:54:05.365Z,44.15
2022-12-08T07:56:08.163Z,50.03
2022-12-08T07:58:10.820Z,50.65
2022-12-08T08:00:13.176Z,54.60
2022-12-08T08:02:24.951Z,52.47
2022-12-08T08:04:27.596Z,48.97
2022-12-08T08:06:29.274Z,51.72
2022-12-08T08:08:31.030Z,50.55
2022-12-08T08:10:32.711Z,64.20
2022-12-08T08:12:34.326Z,54.95
2022-12-08T08:14:36.027Z,61.30
2022-12-08T08:16:38.789Z,62.13
2022-12-08T08:18:40.580Z,58.60
2022-12-08T08:20:42.432Z,58.75
2022-12-08T08:22:45.771Z,53.25
2022-12-08T08:24:47.369Z,63.00
2022-12-08T08:26:49.040Z,54.67
2022-12-08T08:28:50.634Z,57.22
2022-12-08T08:30:52.439Z,51.10
2022-12-08T08:32:54.127Z,48.15
2022-12-08T08:34:55.743Z,49.90
2022-12-08T08:36:57.407Z,51.45
2022-12-08T08:38:59.187Z,51.85
2022-12-08T08:41:02.976Z,55.33
2022-12-08T08:43:06.255Z,52.30
2022-12-08T08:45:08.305Z,45.30
2022-12-08T08:47:09.928Z,56.00
2022-12-08T08:49:11.565Z,56.03
2022-12-08T08:51:14.484Z,56.38
2022-12-08T08:53:16.158Z,56.70
2022-12-08T08:55:18.166Z,60.22
2022-12-08T08:57:25.320Z,55.38
2022-12-08T08:59:27.986Z,56.65
2022-12-08T09:01:30.193Z,55.50
2022-12-08T09:03:32.096Z,51.67
2022-12-08T09:05:33.692Z,51.75
2022-12-08T09:07:35.376Z,54.53
2022-12-08T09:09:37.516Z,56.20
2022-12-08T09:11:39.115Z,55.35
2022-12-08T09:13:40.799Z,52.33
2022-12-08T09:15:42.643Z,45.97
2022-12-08T09:17:44.596Z,52.22
2022-12-08T09:19:46.234Z,47.60
2022-12-08T09:21:47.999Z,49.83
2022-12-08T09:23:59.233Z,46.10
2022-12-08T09:26:01.095Z,47.78
2022-12-08T09:28:02.950Z,47.88
2022-12-08T09:30:05.306Z,39.95
2022-12-08T09:32:07.174Z,42.35
2022-12-08T09:34:09.357Z,40.92
2022-12-08T09:36:11.219Z,43.03
2022-12-08T09:38:13.812Z,42.00
2022-12-08T09:40:18.003Z,41.72
2022-12-08T09:42:42.548Z,44.72
2022-12-08T09:45:04.250Z,43.78
2022-12-08T09:47:14.095Z,44.25
2022-12-08T09:49:19.104Z,40.25
2022-12-08T09:51:20.734Z,42.10
2022-12-08T09:53:43.903Z,33.55
2022-12-08T09:56:21.120Z,28.05
2022-12-08T09:58:47.596Z,37.30
2022-12-08T10:00:49.259Z,25.60
2022-12-08T10:02:50.981Z,30.80
2022-12-08T10:04:55.395Z,28.65
2022-12-08T10:07:04.969Z,31.30
2022-12-08T10:09:37.162Z,32.47
2022-12-08T10:11:58.975Z,33.78
2022-12-08T10:14:25.965Z,31.20
2022-12-08T10:16:40.958Z,27.35
2022-12-08T10:18:42.866Z,31.67
2022-12-08T10:20:47.670Z,29.10
2022-12-08T10:22:57.205Z,29.25
2022-12-08T10:25:09.648Z,27.08
2022-12-08T10:27:12.886Z,35.25
2022-12-08T10:29:15.212Z,34.22
2022-12-08T10:31:19.491Z,30.40
2022-12-08T10:33:22.488Z,32.38
2022-12-08T10:35:25.366Z,27.13
2022-12-08T10:37:27.027Z,23.83
2022-12-08T10:39:31.726Z,21.80
2022-12-08T10:41:33.337Z,26.23
2022-12-08T10:43:37.153Z,25.05
2022-12-08T10:47:45.518Z,22.65
2022-12-08T10:49:48.130Z,22.73
2022-12-08T10:51:49.766Z,22.65
2022-12-08T10:53:51.457Z,22.88
2022-12-08T10:56:06.854Z,22.13
2022-12-08T10:58:36.155Z,21.63
2022-12-08T11:00:39.225Z,22.20
2022-12-08T11:02:54.445Z,21.40
2022-12-08T11:05:00.238Z,20.65
2022-12-08T11:07:03.574Z,18.63
2022-12-08T11:09:27.787Z,22.88
2022-12-08T11:11:56.878Z,18.48
2022-12-08T11:13:58.672Z,24.25
2022-12-08T11:16:00.431Z,24.20
2022-12-08T11:18:09.871Z,21.48
2022-12-08T11:20:11.713Z,23.27
2022-12-08T11:22:32.509Z,18.58
2022-12-08T11:24:37.645Z,20.75
2022-12-08T11:26:39.839Z,20.88
2022-12-08T11:28:41.477Z,20.02
2022-12-08T11:30:47.017Z,23.30
2022-12-08T11:32:57.378Z,21.95
2022-12-08T11:35:02.665Z,25.17
2022-12-08T11:37:05.801Z,23.60
2022-12-08T11:39:10.806Z,24.67
2022-12-08T11:41:16.985Z,23.10
2022-12-08T11:43:21.653Z,28.15
2022-12-08T11:45:29.384Z,23.13
2022-12-08T11:47:44.008Z,30.58
2022-12-08T11:52:00.271Z,25.33
2022-12-08T11:54:27.854Z,23.98
2022-12-08T11:56:34.126Z,23.15
2022-12-08T11:58:42.394Z,24.92
2022-12-08T12:00:44.259Z,30.20
2022-12-08T12:02:50.320Z,22.95
2022-12-08T12:05:46.758Z,21.30
2022-12-08T12:08:15.766Z,21.27
2022-12-08T12:10:20.283Z,23.83
2022-12-08T12:12:39.266Z,21.27
2022-12-08T12:15:18.954Z,15.00
2022-12-08T12:17:35.528Z,18.05
2022-12-08T12:19:39.423Z,15.95
2022-12-08T12:23:54.249Z,13.32
2022-12-08T12:25:59.134Z,14.40
2022-12-08T12:28:03.812Z,20.33
2022-12-08T12:30:18.303Z,18.83
2022-12-08T12:32:20.239Z,17.15
2022-12-08T12:34:52.336Z,13.32
2022-12-08T12:36:58.490Z,17.15
2022-12-08T12:39:01.190Z,14.07
2022-12-08T12:41:04.431Z,16.40
2022-12-08T12:43:14.141Z,17.77
2022-12-08T12:45:21.734Z,20.13
2022-12-08T12:47:56.619Z,20.20
2022-12-08T12:50:06.833Z,13.93
2022-12-08T12:52:21.077Z,14.15
2022-12-08T12:54:26.972Z,14.63
2022-12-08T12:56:50.158Z,21.13
2022-12-08T12:58:53.983Z,14.65
2022-12-08T13:03:15.448Z,15.52
2022-12-08T13:05:24.033Z,18.20
2022-12-08T13:07:29.055Z,21.80
2022-12-08T13:09:34.402Z,18.90
2022-12-08T13:11:48.643Z,18.65
2022-12-08T13:16:18.930Z,15.48
2022-12-08T13:18:25.305Z,18.08
2022-12-08T13:20:27.077Z,17.23
2022-12-08T13:22:58.536Z,20.95
2022-12-08T13:25:38.608Z,20.33
2022-12-08T13:27:53.071Z,31.42
2022-12-08T13:30:52.308Z,16.45
2022-12-08T13:35:21.329Z,15.68
2022-12-08T13:37:29.536Z,24.42
2022-12-08T13:39:36.907Z,21.75
2022-12-08T13:41:41.742Z,18.80
2022-12-08T13:44:31.116Z,18.25
2022-12-08T13:47:02.729Z,17.10
2022-12-08T13:50:36.636Z,20.85
2022-12-08T13:57:02.571Z,18.50
2022-12-08T13:59:09.250Z,15.63
2022-12-08T14:01:19.953Z,19.10
2022-12-08T14:03:21.793Z,15.98
2022-12-08T14:05:47.669Z,22.20
2022-12-08T14:07:48.811Z,19.70
2022-12-08T14:09:51.330Z,18.33
2022-12-08T14:12:06.021Z,20.35
2022-12-08T14:14:09.391Z,16.73
2022-12-08T14:16:28.473Z,18.27
2022-12-08T14:18:31.590Z,15.88
2022-12-08T14:20:51.915Z,22.15
2022-12-08T14:22:57.393Z,20.95
2022-12-08T14:24:59.615Z,25.60
2022-12-08T14:27:04.063Z,28.13
2022-12-08T14:29:08.867Z,18.52
2022-12-08T14:31:14.114Z,23.58
2022-12-08T14:33:17.461Z,22.95
2022-12-08T14:35:26.471Z,21.25
2022-12-08T14:37:31.791Z,20.83
2022-12-08T14:39:33.391Z,22.30
2022-12-08T14:41:34.993Z,23.70
2022-12-08T14:43:36.611Z,21.92
2022-12-08T14:45:41.396Z,21.85
2022-12-08T14:47:43.314Z,21.55
2022-12-08T14:49:44.922Z,22.75
2022-12-08T14:51:46.546Z,18.83
2022-12-08T14:54:01.027Z,20.73
2022-12-08T14:56:07.808Z,21.58
2022-12-08T14:58:17.911Z,20.10
2022-12-08T15:00:20.766Z,24.85
2022-12-08T15:02:29.483Z,33.95
2022-12-08T15:04:31.152Z,36.30
2022-12-08T15:06:32.804Z,33.53
2022-12-08T15:08:35.128Z,29.60
2022-12-08T15:10:39.924Z,26.58
2022-12-08T15:13:00.250Z,30.33
2022-12-08T15:15:15.696Z,26.92
2022-12-08T15:17:33.561Z,26.17
2022-12-08T15:19:35.264Z,28.30
2022-12-08T15:21:38.903Z,26.52
2022-12-08T15:23:45.785Z,26.27
2022-12-08T15:25:47.646Z,27.02
2022-12-08T15:27:50.828Z,22.13
2022-12-08T15:29:53.174Z,30.30
2022-12-08T15:31:57.402Z,28.77
2022-12-08T15:33:59.070Z,29.30
2022-12-08T15:36:00.683Z,29.23
2022-12-08T15:38:02.386Z,29.92
2022-12-08T15:40:05.103Z,30.90
2022-12-08T15:42:12.688Z,31.08
2022-12-08T15:44:14.269Z,29.38
2022-12-08T15:46:15.919Z,29.90
2022-12-08T15:48:23.117Z,37.72
2022-12-08T15:50:24.704Z,34.90
2022-12-08T15:52:26.536Z,40.85
2022-12-08T15:54:28.146Z,38.00
2022-12-08T15:56:29.843Z,42.97
2022-12-08T15:58:53.101Z,34.25
2022-12-08T16:00:55.694Z,35.90
2022-12-08T16:03:34.104Z,46.35
2022-12-08T16:05:42.222Z,38.53
2022-12-08T16:07:42.059Z,50.20
2022-12-08T16:09:44.003Z,52.97
2022-12-08T16:12:07.196Z,51.47
2022-12-08T16:14:54.781Z,44.15
2022-12-08T16:16:31.303Z,41.17
2022-12-08T16:18:35.386Z,41.15
2022-12-08T16:21:06.031Z,36.17
2022-12-08T16:23:19.421Z,35.63
2022-12-08T16:25:22.363Z,54.03
2022-12-08T16:29:50.114Z,45.67
2022-12-08T16:31:52.218Z,53.88
2022-12-08T16:33:53.883Z,47.40
2022-12-08T16:35:55.643Z,57.83
2022-12-08T16:37:57.596Z,72.22
2022-12-08T16:39:59.379Z,63.25
2022-12-08T16:42:19.376Z,59.63
2022-12-08T16:44:21.283Z,47.22
2022-12-08T16:46:26.952Z,50.83
2022-12-08T16:48:28.718Z,45.78
2022-12-08T16:50:34.902Z,53.80
2022-12-08T16:52:36.555Z,47.88
2022-12-08T16:54:38.211Z,46.90
2022-12-08T16:56:40.000Z,37.53
2022-12-08T16:58:41.615Z,30.90
2022-12-08T17:00:43.223Z,39.88
2022-12-08T17:02:45.380Z,41.95
2022-12-08T17:04:47.068Z,29.88
2022-12-08T17:06:50.967Z,32.20
2022-12-08T17:11:07.267Z,31.92
2022-12-08T17:13:09.966Z,25.40
2022-12-08T17:15:15.796Z,28.88
2022-12-08T17:17:17.384Z,25.25
2022-12-08T17:19:19.002Z,24.33
2022-12-08T17:21:20.805Z,41.42
2022-12-08T17:23:22.641Z,38.28
2022-12-08T17:25:27.531Z,35.63
2022-12-08T17:27:29.274Z,31.65
2022-12-08T17:29:31.855Z,24.55
2022-12-08T17:31:33.641Z,30.75
2022-12-08T17:33:35.526Z,25.77
2022-12-08T17:35:37.104Z,38.58
2022-12-08T17:37:38.802Z,27.80
2022-12-08T17:39:40.574Z,26.58
2022-12-08T17:41:42.202Z,35.13
2022-12-08T17:43:43.883Z,26.98
2022-12-08T17:45:47.465Z,32.22
2022-12-08T17:47:49.143Z,35.80
2022-12-08T17:49:50.880Z,31.08
2022-12-08T17:51:55.162Z,30.67
2022-12-08T17:53:56.784Z,35.33
2022-12-08T17:55:58.405Z,27.67
2022-12-08T17:58:00.682Z,25.58
2022-12-08T18:00:03.172Z,24.58
2022-12-08T18:02:05.102Z,26.25
2022-12-08T18:04:08.232Z,41.67
2022-12-08T18:06:11.525Z,38.97
2022-12-08T18:08:13.734Z,32.00
2022-12-08T18:10:16.007Z,30.50
2022-12-08T18:12:23.244Z,30.08
2022-12-08T18:14:25.519Z,41.00
2022-12-08T18:16:28.013Z,32.90
2022-12-08T18:18:29.697Z,42.78
2022-12-08T18:20:31.477Z,39.15
2022-12-08T18:22:33.115Z,31.88
2022-12-08T18:24:34.800Z,29.08
2022-12-08T18:26:36.538Z,28.45
2022-12-08T18:28:38.801Z,29.67
2022-12-08T18:30:40.519Z,30.23
2022-12-08T18:32:42.236Z,28.33
2022-12-08T18:34:44.455Z,25.95
2022-12-08T18:36:46.047Z,31.88
2022-12-08T18:38:47.871Z,28.15
2022-12-08T18:40:49.559Z,24.90
2022-12-08T18:42:51.256Z,27.70
2022-12-08T18:45:13.487Z,23.63
2022-12-08T18:47:17.969Z,26.25
2022-12-08T18:49:19.879Z,24.20
2022-12-08T18:51:24.442Z,19.52
2022-12-08T18:53:26.078Z,24.67
2022-12-08T18:55:27.650Z,26.20
2022-12-08T18:57:29.367Z,26.08
2022-12-08T18:59:31.026Z,23.33
2022-12-08T19:01:33.965Z,26.40
2022-12-08T19:03:35.762Z,24.23
2022-12-08T19:05:37.533Z,31.30
2022-12-08T19:07:39.247Z,26.40
2022-12-08T19:09:42.141Z,21.85
2022-12-08T19:11:44.180Z,24.48
2022-12-08T19:13:46.611Z,27.25
2022-12-08T19:15:48.465Z,27.50
2022-12-08T19:17:50.143Z,24.40
2022-12-08T19:19:52.073Z,25.60
2022-12-08T19:21:53.789Z,24.67
2022-12-08T19:23:58.350Z,28.33
2022-12-08T19:26:00.921Z,26.90
2022-12-08T19:28:02.719Z,27.35
2022-12-08T19:30:05.286Z,29.42
2022-12-08T19:32:07.414Z,32.57
2022-12-08T19:34:10.508Z,34.65
2022-12-08T19:36:16.021Z,22.83
2022-12-08T19:38:17.681Z,23.95
2022-12-08T19:40:37.847Z,24.70
2022-12-08T19:42:58.332Z,18.85
2022-12-08T19:45:07.557Z,21.13
2022-12-08T19:47:09.567Z,19.30
2022-12-08T19:49:11.274Z,22.20
2022-12-08T19:51:12.951Z,21.50
2022-12-08T19:53:15.582Z,20.30
2022-12-08T19:55:17.244Z,20.83
2022-12-08T19:57:20.623Z,18.58
2022-12-08T19:59:25.284Z,20.50
2022-12-08T20:01:27.049Z,19.42
2022-12-08T20:03:28.937Z,19.00
2022-12-08T20:05:31.922Z,20.48
2022-12-08T20:07:33.929Z,22.50
2022-12-08T20:09:35.798Z,25.15
2022-12-08T20:11:38.256Z,23.13
2022-12-08T20:13:44.699Z,24.90
2022-12-08T20:15:46.639Z,30.85
2022-12-08T20:17:48.384Z,24.33
2022-12-08T20:19:50.212Z,29.70
2022-12-08T20:21:51.963Z,24.60
2022-12-08T20:23:53.991Z,29.92
2022-12-08T20:25:55.685Z,30.95
2022-12-08T20:27:57.446Z,23.10
2022-12-08T20:29:59.064Z,28.42
2022-12-08T20:32:00.803Z,26.88
2022-12-08T20:34:02.653Z,25.75
2022-12-08T20:36:05.683Z,23.77
2022-12-08T20:38:07.312Z,22.13
2022-12-08T20:40:09.394Z,25.02
2022-12-08T20:42:14.149Z,21.88
2022-12-08T20:44:15.855Z,20.33
2022-12-08T20:46:18.268Z,21.98
2022-12-08T20:48:19.900Z,19.13
2022-12-08T20:50:21.651Z,21.67
2022-12-08T20:52:23.332Z,19.58
2022-12-08T20:54:25.172Z,21.05
2022-12-08T20:56:27.405Z,18.80
2022-12-08T20:58:29.253Z,18.98
2022-12-08T21:00:31.029Z,19.27
2022-12-08T21:02:32.954Z,15.63
2022-12-08T21:04:35.198Z,19.58
2022-12-08T21:06:36.941Z,21.67
2022-12-08T21:08:39.795Z,20.38
2022-12-08T21:10:43.930Z,19.83
2022-12-08T21:12:46.132Z,22.38
2022-12-08T21:14:48.026Z,18.50
2022-12-08T21:16:50.972Z,19.55
2022-12-08T21:18:52.990Z,21.48
2022-12-08T21:21:06.480Z,17.27
2022-12-08T21:23:08.631Z,21.50
2022-12-08T21:25:10.484Z,20.23
2022-12-08T21:27:12.276Z,17.85
2022-12-08T21:29:14.060Z,19.42
2022-12-08T21:31:18.302Z,21.13
2022-12-08T21:33:20.283Z,20.27
2022-12-08T21:35:22.165Z,19.25
2022-12-08T21:37:24.568Z,20.65
2022-12-08T21:39:26.814Z,17.50
2022-12-08T21:41:47.389Z,19.90
2022-12-08T21:43:49.113Z,19.55
2022-12-08T21:45:50.908Z,19.13
2022-12-08T21:47:52.668Z,21.38
2022-12-08T21:49:54.485Z,22.35
2022-12-08T21:51:56.616Z,17.73
2022-12-08T21:53:58.349Z,21.33
2022-12-08T21:56:00.162Z,19.55
2022-12-08T21:58:02.333Z,19.00
2022-12-08T22:00:06.856Z,19.75
2022-12-08T22:02:14.699Z,18.42
2022-12-08T22:04:21.924Z,19.50
2022-12-08T22:06:23.711Z,19.63
2022-12-08T22:08:25.534Z,20.52
2022-12-08T22:10:27.722Z,18.55
2022-12-08T22:12:29.461Z,19.95
2022-12-08T22:14:31.353Z,22.15
2022-12-08T22:16:33.188Z,18.02
2022-12-08T22:18:35.728Z,18.77
2022-12-08T22:20:43.717Z,17.33
2022-12-08T22:22:46.913Z,26.55
2022-12-08T22:24:48.680Z,19.77
2022-12-08T22:26:50.369Z,24.13
2022-12-08T22:28:52.327Z,26.65
2022-12-08T22:30:53.967Z,22.48
2022-12-08T22:32:55.597Z,24.67
2022-12-08T22:34:57.416Z,19.95
2022-12-08T22:36:59.107Z,20.92
2022-12-08T22:39:02.023Z,23.85
2022-12-08T22:41:05.059Z,25.07
2022-12-08T22:43:06.726Z,29.27
2022-12-08T22:45:09.244Z,28.05
2022-12-08T22:47:11.427Z,24.15
2022-12-08T22:49:13.150Z,23.35
2022-12-08T22:51:15.177Z,27.73
2022-12-08T22:53:17.250Z,23.50
2022-12-08T22:55:18.878Z,25.73
2022-12-08T22:57:20.476Z,22.45
2022-12-08T22:59:22.461Z,34.70
2022-12-08T23:01:26.741Z,24.13
2022-12-08T23:03:28.778Z,27.70
2022-12-08T23:05:35.138Z,22.23
2022-12-08T23:07:37.062Z,21.83
2022-12-08T23:09:38.733Z,24.50
2022-12-08T23:11:40.681Z,21.27
2022-12-08T23:13:42.335Z,26.60
2022-12-08T23:15:44.022Z,23.25
2022-12-08T23:17:46.174Z,27.00
2022-12-08T23:19:47.901Z,29.42
2022-12-08T23:21:49.730Z,25.80
2022-12-08T23:23:51.478Z,25.63
2022-12-08T23:25:53.351Z,30.85
2022-12-08T23:27:55.214Z,25.15
2022-12-08T23:29:57.096Z,28.15
2022-12-08T23:31:59.061Z,24.67
2022-12-08T23:34:02.101Z,29.20
2022-12-08T23:36:04.103Z,27.30
2022-12-08T23:38:05.719Z,28.25
2022-12-08T23:40:08.286Z,24.65
2022-12-08T23:42:10.666Z,26.57
2022-12-08T23:44:12.428Z,26.92
2022-12-08T23:46:15.801Z,23.33
2022-12-08T23:48:17.656Z,25.42
2022-12-08T23:50:19.607Z,20.63
2022-12-08T23:52:21.242Z,22.38
2022-12-08T23:54:23.165Z,23.95
2022-12-08T23:56:30.057Z,28.45
2022-12-08T23:58:32.908Z,22.60
